Search for airport 
image banner adimage banner adimage banner ad
image banner ad

1PA3 - Ridgeview

Located in Kellers Church, United States

ICAO - 1PA3, IATA -

Data provided by Airmate  

General information

Coordinates: N40°27'0" W75°11'59"
Elevation is 520 feet MSL.
Magnetic variation is -12° East
View others Airports in Pennsylvania

Operational data

Special qualification required
Current time UTC:
Current local time:
Weather at : KCKZ - Pennridge ( 10 km )
METAR: KCKZ 091315Z AUTO 29004KT 10SM CLR 09/04 A3010 RMK AO2
View NOTAMs / SUP AIP / TFR affecting this airport [VIEW]
Communications frequencies: [VIEW]

Runways:

RWY identifierQFULength (ft)Width (ft)SurfaceLDA (ft)
121200100GRASS
301200100GRASS

Airport contact information

Address: Kellers Church United States

Satellite view of 1PA3